createdAt,value
2023-02-26T00:01:20.923Z,2.47
2023-02-26T00:06:26.309Z,2.47
2023-02-26T00:11:31.792Z,2.45
2023-02-26T00:16:37.477Z,2.35
2023-02-26T00:21:41.966Z,2.32
2023-02-26T00:26:46.764Z,2.39
2023-02-26T00:31:51.107Z,2.14
2023-02-26T00:37:11.744Z,2.32
2023-02-26T00:42:17.335Z,2.26
2023-02-26T00:47:30.839Z,2.50
2023-02-26T00:52:40.540Z,7.62
2023-02-26T00:57:45.410Z,4.33
2023-02-26T01:02:48.926Z,3.93
2023-02-26T01:08:01.261Z,3.87
2023-02-26T01:13:06.980Z,3.59
2023-02-26T01:18:15.579Z,3.77
2023-02-26T01:23:24.522Z,3.50
2023-02-26T01:28:30.158Z,3.62
2023-02-26T01:33:42.207Z,3.49
2023-02-26T01:38:54.772Z,3.64
2023-02-26T01:44:06.347Z,3.46
2023-02-26T01:49:14.969Z,3.27
2023-02-26T01:54:21.888Z,3.03
2023-02-26T01:59:26.930Z,2.96
2023-02-26T02:04:30.204Z,3.30
2023-02-26T02:09:33.773Z,2.79
2023-02-26T02:14:49.620Z,3.05
2023-02-26T02:20:27.827Z,2.78
2023-02-26T02:25:56.042Z,2.96
2023-02-26T02:31:09.708Z,2.40
2023-02-26T02:36:20.369Z,2.67
2023-02-26T02:41:28.950Z,2.66
2023-02-26T02:46:38.266Z,2.94
2023-02-26T02:51:48.619Z,2.77
2023-02-26T02:56:56.628Z,2.97
2023-02-26T03:02:08.409Z,2.71
2023-02-26T03:07:12.351Z,2.68
2023-02-26T03:12:16.079Z,2.60
2023-02-26T03:17:28.783Z,2.52
2023-02-26T03:22:40.378Z,2.43
2023-02-26T03:27:49.501Z,2.50
2023-02-26T03:33:00.805Z,2.51
2023-02-26T03:38:09.310Z,2.19
2023-02-26T03:43:19.471Z,2.39
2023-02-26T03:48:28.787Z,2.16
2023-02-26T03:53:38.097Z,2.44
2023-02-26T03:58:41.543Z,2.29
2023-02-26T04:03:50.424Z,2.37
2023-02-26T04:08:53.992Z,2.22
2023-02-26T04:13:57.665Z,2.29
2023-02-26T04:19:02.547Z,2.26
2023-02-26T04:24:05.927Z,2.29
2023-02-26T04:29:09.283Z,2.41
2023-02-26T04:34:14.236Z,2.25
2023-02-26T04:39:17.631Z,2.29
2023-02-26T04:44:20.967Z,2.43
2023-02-26T04:49:25.774Z,2.57
2023-02-26T04:54:29.140Z,2.73
2023-02-26T04:59:32.662Z,2.74
2023-02-26T05:04:37.611Z,2.80
2023-02-26T05:09:40.705Z,2.79
2023-02-26T05:14:44.017Z,2.96
2023-02-26T05:19:48.928Z,3.03
2023-02-26T05:24:51.993Z,2.93
2023-02-26T05:29:55.587Z,2.87
2023-02-26T05:35:00.382Z,2.99
2023-02-26T05:40:03.874Z,3.20
2023-02-26T05:45:08.949Z,2.98
2023-02-26T05:50:14.353Z,3.22
2023-02-26T05:55:18.140Z,3.07
2023-02-26T06:00:22.117Z,3.16
2023-02-26T06:05:26.977Z,3.16
2023-02-26T06:10:30.508Z,3.30
2023-02-26T06:15:34.080Z,3.46
2023-02-26T06:20:39.307Z,3.67
2023-02-26T06:25:43.040Z,3.80
2023-02-26T06:30:46.557Z,3.88
2023-02-26T06:35:51.940Z,4.18
2023-02-26T06:40:55.475Z,4.40
2023-02-26T06:45:59.813Z,4.40
2023-02-26T06:51:07.365Z,4.51
2023-02-26T06:56:10.859Z,4.34
2023-02-26T07:01:14.446Z,4.30
2023-02-26T07:06:27.461Z,4.44
2023-02-26T07:11:31.660Z,4.23
2023-02-26T07:16:35.076Z,4.31
2023-02-26T07:21:40.099Z,4.18
2023-02-26T07:26:43.566Z,4.01
2023-02-26T07:31:47.114Z,4.21
2023-02-26T07:36:52.030Z,4.29
2023-02-26T07:41:56.894Z,4.25
2023-02-26T07:47:00.406Z,4.27
2023-02-26T07:52:07.324Z,4.37
2023-02-26T07:57:10.965Z,4.47
2023-02-26T08:02:14.886Z,4.68
2023-02-26T08:07:19.760Z,4.91
2023-02-26T08:12:23.258Z,4.75
2023-02-26T08:17:26.664Z,4.85
2023-02-26T08:22:31.595Z,4.91
2023-02-26T08:27:34.982Z,5.01
2023-02-26T08:32:40.002Z,5.70
2023-02-26T08:37:44.581Z,5.60
2023-02-26T08:42:48.328Z,5.05
2023-02-26T08:47:57.221Z,5.01
2023-02-26T08:53:02.232Z,5.11
2023-02-26T08:58:05.936Z,5.12
2023-02-26T09:03:09.441Z,4.83
2023-02-26T09:08:16.270Z,4.61
2023-02-26T09:13:19.764Z,4.95
2023-02-26T09:18:23.310Z,4.48
2023-02-26T09:23:28.489Z,4.64
2023-02-26T09:28:32.017Z,4.44
2023-02-26T09:33:36.236Z,4.35
2023-02-26T09:38:41.502Z,4.22
2023-02-26T09:44:09.000Z,4.26
2023-02-26T09:49:21.779Z,4.20
2023-02-26T09:54:29.563Z,4.37
2023-02-26T09:59:35.426Z,4.04
2023-02-26T10:04:52.561Z,3.72
2023-02-26T10:10:07.181Z,4.08
2023-02-26T10:15:14.852Z,4.37
2023-02-26T10:20:22.892Z,4.35
2023-02-26T10:25:30.483Z,4.64
2023-02-26T10:30:38.697Z,4.75
2023-02-26T10:35:59.955Z,4.90
2023-02-26T10:41:11.788Z,4.89
2023-02-26T10:46:27.220Z,4.76
2023-02-26T10:51:35.489Z,4.37
2023-02-26T10:56:40.223Z,4.47
2023-02-26T11:01:44.369Z,4.16
2023-02-26T11:06:55.137Z,4.05
2023-02-26T11:12:07.857Z,4.30
2023-02-26T11:17:15.535Z,4.57
2023-02-26T11:22:20.076Z,4.91
2023-02-26T11:27:28.255Z,4.91
2023-02-26T11:32:33.313Z,4.66
2023-02-26T11:37:39.544Z,4.14
2023-02-26T11:42:49.815Z,3.69
2023-02-26T11:48:14.488Z,3.81
2023-02-26T11:53:20.561Z,3.15
2023-02-26T11:58:26.096Z,3.39
2023-02-26T12:03:33.620Z,3.87
2023-02-26T12:08:38.780Z,4.04
2023-02-26T12:13:57.828Z,4.23
2023-02-26T12:19:07.913Z,4.29
2023-02-26T12:24:36.867Z,4.42
2023-02-26T12:30:04.770Z,4.18
2023-02-26T12:35:31.556Z,3.99
2023-02-26T12:40:59.556Z,4.30
2023-02-26T12:46:15.716Z,4.49
2023-02-26T12:51:31.164Z,4.14
2023-02-26T12:57:16.133Z,3.78
2023-02-26T13:02:49.259Z,3.27
2023-02-26T13:08:03.277Z,3.23
2023-02-26T13:13:20.213Z,2.91
2023-02-26T13:18:33.361Z,2.58
2023-02-26T13:23:41.233Z,2.44
2023-02-26T13:28:49.041Z,2.29
2023-02-26T13:33:56.536Z,1.93
2023-02-26T13:39:16.856Z,1.70
2023-02-26T13:44:33.315Z,2.05
2023-02-26T13:49:52.004Z,1.66
2023-02-26T13:54:55.796Z,1.63
2023-02-26T14:00:13.012Z,1.70
2023-02-26T14:05:37.161Z,1.79
2023-02-26T14:10:48.206Z,1.63
2023-02-26T14:16:00.891Z,1.32
2023-02-26T14:21:40.511Z,1.52
2023-02-26T14:26:48.093Z,1.43
2023-02-26T14:32:07.008Z,1.40
2023-02-26T14:37:16.694Z,1.16
2023-02-26T14:42:23.687Z,1.18
2023-02-26T14:47:27.958Z,1.09
2023-02-26T14:53:22.741Z,0.77
2023-02-26T14:58:40.592Z,0.82
2023-02-26T15:04:20.152Z,0.67
2023-02-26T15:09:28.770Z,0.66
2023-02-26T15:14:58.998Z,0.82
2023-02-26T15:20:17.357Z,0.97
2023-02-26T15:25:30.665Z,0.61
2023-02-26T15:30:36.394Z,0.47
2023-02-26T15:35:40.180Z,0.38
2023-02-26T15:40:44.313Z,0.45
2023-02-26T15:45:50.760Z,0.62
2023-02-26T15:50:56.421Z,0.45
2023-02-26T15:56:02.553Z,0.40
2023-02-26T16:01:15.636Z,0.58
2023-02-26T16:06:25.603Z,0.49
2023-02-26T16:11:34.531Z,0.50
2023-02-26T16:16:43.615Z,0.35
2023-02-26T16:21:48.257Z,0.33
2023-02-26T16:26:56.404Z,0.03
2023-02-26T16:32:04.161Z,-0.04
2023-02-26T16:37:26.392Z,-0.01
2023-02-26T16:42:45.168Z,0.07
2023-02-26T16:47:55.387Z,0.23
2023-02-26T16:53:03.172Z,0.08
2023-02-26T16:58:09.947Z,0.06
2023-02-26T17:03:17.368Z,0.07
2023-02-26T17:08:23.888Z,0.04
2023-02-26T17:13:29.084Z,0.13
2023-02-26T17:18:34.256Z,0.07
2023-02-26T17:23:40.013Z,-0.01
2023-02-26T17:28:44.752Z,-0.07
2023-02-26T17:33:51.289Z,-0.07
2023-02-26T17:38:54.828Z,-0.01
2023-02-26T17:43:58.237Z,-0.22
2023-02-26T17:49:03.365Z,-0.10
2023-02-26T17:54:07.015Z,-0.20
2023-02-26T17:59:13.097Z,-0.33
2023-02-26T18:04:18.128Z,-0.19
2023-02-26T18:09:21.590Z,-0.05
2023-02-26T18:14:24.963Z,-0.18
2023-02-26T18:19:29.907Z,-0.09
2023-02-26T18:24:33.707Z,0.01
2023-02-26T18:29:37.135Z,-0.06
2023-02-26T18:34:42.193Z,-0.06
2023-02-26T18:39:45.793Z,-0.01
2023-02-26T18:44:49.696Z,-0.07
2023-02-26T18:49:54.777Z,-0.13
2023-02-26T18:54:58.132Z,-0.23
2023-02-26T19:00:01.812Z,-0.13
2023-02-26T19:05:10.330Z,-0.06
2023-02-26T19:10:15.227Z,-0.11
2023-02-26T19:15:18.820Z,-0.09
2023-02-26T19:20:23.704Z,-0.28
2023-02-26T19:25:29.232Z,-0.49
2023-02-26T19:30:32.845Z,-0.53
2023-02-26T19:35:38.160Z,-0.07
2023-02-26T19:40:41.459Z,-0.07
2023-02-26T19:45:44.956Z,-0.25
2023-02-26T19:50:51.614Z,-0.19
2023-02-26T19:55:55.393Z,-0.08
2023-02-26T20:00:59.513Z,-0.16
2023-02-26T20:06:04.485Z,-0.21
2023-02-26T20:11:08.559Z,-0.18
2023-02-26T20:16:12.662Z,-0.50
2023-02-26T20:21:17.662Z,-0.25
2023-02-26T20:26:21.269Z,-0.35
2023-02-26T20:31:24.873Z,-0.46
2023-02-26T20:36:29.863Z,-0.33
2023-02-26T20:41:33.330Z,-0.49
2023-02-26T20:46:39.175Z,-0.42
2023-02-26T20:51:44.221Z,-0.14
2023-02-26T20:56:48.924Z,-0.46
2023-02-26T21:01:54.006Z,-0.38
2023-02-26T21:07:12.804Z,-0.35
2023-02-26T21:12:16.737Z,-0.40
2023-02-26T21:17:20.214Z,-0.62
2023-02-26T21:22:25.274Z,-0.61
2023-02-26T21:27:29.055Z,-0.46
2023-02-26T21:32:32.590Z,-0.57
2023-02-26T21:37:38.025Z,-0.62
2023-02-26T21:42:41.512Z,-0.54
2023-02-26T21:47:44.907Z,-0.74
2023-02-26T21:52:49.869Z,-0.59
2023-02-26T21:57:53.133Z,-0.71
2023-02-26T22:02:56.699Z,-0.79
2023-02-26T22:08:01.750Z,-0.70
2023-02-26T22:13:05.238Z,-0.51
2023-02-26T22:18:08.943Z,-0.60
2023-02-26T22:23:13.824Z,-0.49
2023-02-26T22:28:16.881Z,-0.69
2023-02-26T22:33:20.295Z,-0.62
2023-02-26T22:38:25.541Z,-0.67
2023-02-26T22:43:29.081Z,-0.82
2023-02-26T22:48:32.477Z,-0.86
2023-02-26T22:53:37.285Z,-0.99
2023-02-26T22:58:40.575Z,-0.74
2023-02-26T23:03:44.017Z,-0.78
2023-02-26T23:08:49.142Z,-0.81
2023-02-26T23:13:52.559Z,-0.95
2023-02-26T23:18:56.108Z,-1.03
2023-02-26T23:24:01.055Z,-1.02
2023-02-26T23:29:06.482Z,-1.25
2023-02-26T23:34:11.501Z,-1.41
2023-02-26T23:39:16.116Z,-1.04
2023-02-26T23:44:19.795Z,-0.96
2023-02-26T23:49:23.288Z,-1.12
2023-02-26T23:54:28.080Z,-1.25
2023-02-26T23:59:31.310Z,-1.24
